Time;durP1;ratioP1;P1;durP2;ratioP2;P2;SDS_P1;SDS_P2;PMS_P1;PMS_P2;Temp;Humidity;BMP_temperature;BMP_pressure;BME280_temperature;BME280_humidity;BME280_pressure;Samples;Min_cycle;Max_cycle;Signal;HPM_P1;HPM_P2
2022/08/28 00:00:14;;;;;;;1.83;0.30;;;;;;;20.25;69.92;101650.41;7380024;19;20564;-65
2022/08/28 00:02:42;;;;;;;3.05;0.40;;;;;;;20.23;69.61;101649.75;7384200;19;20010;-66
2022/08/28 00:05:21;;;;;;;4.47;0.43;;;;;;;20.22;69.56;101643.59;7380914;19;20010;-65
2022/08/28 00:07:50;;;;;;;1.05;0.35;;;;;;;20.20;70.17;101642.97;7385304;19;20378;-66
2022/08/28 00:10:19;;;;;;;2.88;0.43;;;;;;;20.18;69.89;101639.66;7379119;19;20015;-66
2022/08/28 00:12:50;;;;;;;2.90;0.40;;;;;;;20.16;69.85;101640.88;7383221;19;20014;-66
2022/08/28 00:15:30;;;;;;;2.83;0.35;;;;;;;20.16;70.02;101640.88;7384640;19;20014;-67
2022/08/28 00:17:59;;;;;;;1.75;0.43;;;;;;;20.11;70.07;101638.81;7383604;19;20022;-68
2022/08/28 00:20:27;;;;;;;3.10;0.40;;;;;;;20.10;70.35;101639.00;7374657;19;20029;-68
2022/08/28 00:22:54;;;;;;;3.17;0.60;;;;;;;20.10;70.00;101639.81;7382509;19;20018;-66
2022/08/28 00:25:24;;;;;;;6.85;0.45;;;;;;;20.10;70.29;101645.16;7384685;19;20037;-66
2022/08/28 00:27:56;;;;;;;3.72;0.47;;;;;;;20.10;70.40;101644.34;7383281;19;20625;-66
2022/08/28 00:30:34;;;;;;;2.05;0.50;;;;;;;20.09;70.38;101648.84;7388406;19;20423;-66
2022/08/28 00:33:09;;;;;;;2.95;0.30;;;;;;;20.07;70.05;101648.22;7391754;19;20031;-69
2022/08/28 00:35:37;;;;;;;2.97;0.30;;;;;;;20.04;70.32;101646.78;7389284;19;20831;-67
2022/08/28 00:38:06;;;;;;;3.80;0.40;;;;;;;20.03;70.01;101634.41;7389920;19;20018;-64
2022/08/28 00:40:34;;;;;;;3.05;0.30;;;;;;;19.98;70.77;101641.38;7389310;19;20019;-64
2022/08/28 00:43:04;;;;;;;5.35;0.30;;;;;;;19.92;70.85;101639.47;7391409;19;20138;-65
2022/08/28 00:45:32;;;;;;;2.13;0.30;;;;;;;19.91;70.96;101635.16;7389770;19;20022;-65
2022/08/28 00:48:05;;;;;;;2.70;0.25;;;;;;;19.81;71.39;101640.03;7391514;19;20022;-65
2022/08/28 00:52:04;;;;;;;1.05;0.22;;;;;;;19.77;71.14;101638.72;7383188;19;20017;-64
2022/08/28 00:53:26;;;;;;;2.47;0.50;;;;;;;19.72;71.54;101643.81;7390654;19;20018;-65
2022/08/28 00:56:00;;;;;;;2.00;0.50;;;;;;;19.72;71.74;101643.81;7388252;19;20392;-65
2022/08/28 00:58:30;;;;;;;2.45;0.40;;;;;;;19.71;72.20;101642.19;7390183;19;20045;-65
2022/08/28 01:00:58;;;;;;;1.50;0.20;;;;;;;19.68;72.15;101640.72;7389414;19;20010;-67
2022/08/28 01:03:27;;;;;;;3.83;0.40;;;;;;;19.70;71.73;101640.53;7390741;19;20021;-64
2022/08/28 01:05:54;;;;;;;2.15;0.30;;;;;;;19.68;72.27;101648.72;7388450;19;20025;-66
2022/08/28 01:08:22;;;;;;;1.33;0.17;;;;;;;19.66;72.29;101642.75;7390496;19;20010;-66
2022/08/28 01:10:53;;;;;;;3.17;0.30;;;;;;;19.68;72.75;101640.72;7385998;19;20042;-65
2022/08/28 01:13:22;;;;;;;1.60;0.20;;;;;;;19.68;72.47;101635.38;7388757;19;20432;-65
2022/08/28 01:15:50;;;;;;;1.13;0.10;;;;;;;19.67;71.96;101647.06;7389994;19;20340;-65
2022/08/28 01:18:19;;;;;;;2.67;0.28;;;;;;;19.65;72.24;101646.47;7390008;19;20691;-65
2022/08/28 01:21:02;;;;;;;1.90;0.40;;;;;;;19.63;72.38;101649.31;7387180;19;20613;-66
2022/08/28 01:23:50;;;;;;;;;;;;;;;19.61;72.48;101648.66;7390194;19;20017;-66
2022/08/28 01:26:17;;;;;;;2.97;0.20;;;;;;;19.61;72.58;101645.16;7389447;19;20378;-65
2022/08/28 01:28:45;;;;;;;3.10;0.40;;;;;;;19.60;72.53;101640.88;7388554;19;20023;-65
2022/08/28 01:31:15;;;;;;;2.33;0.30;;;;;;;19.59;72.20;101647.22;7386121;19;20118;-65
2022/08/28 01:33:43;;;;;;;0.93;0.13;;;;;;;19.59;71.84;101645.38;7389474;19;20010;-66
2022/08/28 01:36:22;;;;;;;2.47;0.45;;;;;;;19.59;72.60;101641.88;7386764;19;20010;-65
2022/08/28 01:39:17;;;;;;;5.20;0.30;;;;;;;19.57;72.27;101646.56;7386170;19;20537;-65
2022/08/28 01:41:47;;;;;;;1.33;0.25;;;;;;;19.51;72.44;101648.16;7388439;19;20404;-66
2022/08/28 01:44:16;;;;;;;1.92;0.20;;;;;;;19.54;72.15;101649.63;7387322;19;20010;-65
2022/08/28 01:46:44;;;;;;;2.60;0.20;;;;;;;19.53;72.65;101647.97;7388934;19;20022;-65
2022/08/28 01:49:11;;;;;;;2.53;0.28;;;;;;;19.52;72.55;101649.00;7385248;19;20060;-66
2022/08/28 01:51:40;;;;;;;3.28;0.25;;;;;;;19.51;73.29;101645.50;7386015;19;20015;-66
2022/08/28 01:54:08;;;;;;;2.55;0.20;;;;;;;19.49;73.02;101650.22;7387347;19;20022;-66
2022/08/28 01:56:38;;;;;;;1.95;0.30;;;;;;;19.49;72.68;101644.88;7390645;19;20495;-66
2022/08/28 01:59:07;;;;;;;2.90;0.30;;;;;;;19.47;72.87;101638.88;7388317;19;20018;-65
2022/08/28 02:01:35;;;;;;;1.30;0.30;;;;;;;19.46;72.77;101647.06;7389459;19;20014;-65
2022/08/28 02:04:03;;;;;;;2.38;0.30;;;;;;;19.46;73.00;101642.56;7385426;19;20025;-63
2022/08/28 02:06:31;;;;;;;1.75;0.20;;;;;;;19.43;72.79;101637.59;7387836;19;20034;-63
2022/08/28 02:08:59;;;;;;;1.38;0.20;;;;;;;19.41;73.08;101636.94;7385316;19;20037;-64
2022/08/28 02:11:29;;;;;;;3.10;0.30;;;;;;;19.40;72.98;101639.81;7386149;19;20011;-64
2022/08/28 02:13:56;;;;;;;1.17;0.35;;;;;;;19.37;72.98;101640.19;7387153;19;20309;-63
2022/08/28 02:16:25;;;;;;;0.68;0.20;;;;;;;19.37;73.24;101642.84;7387973;19;20514;-63
2022/08/28 02:18:53;;;;;;;3.10;0.20;;;;;;;19.38;73.06;101639.16;7382959;19;20014;-63
2022/08/28 02:21:20;;;;;;;1.58;0.20;;;;;;;19.37;73.33;101635.69;7386120;19;20014;-63
2022/08/28 02:23:48;;;;;;;1.85;0.20;;;;;;;19.36;73.65;101644.69;7384354;19;20041;-65
2022/08/28 02:26:15;;;;;;;1.95;0.30;;;;;;;19.36;73.15;101649.19;7387647;19;20178;-64
2022/08/28 02:28:42;;;;;;;1.65;0.20;;;;;;;19.32;73.63;101648.75;7384104;19;20022;-65
2022/08/28 02:31:10;;;;;;;3.88;0.40;;;;;;;19.27;74.05;101651.19;7385445;19;20029;-63
2022/08/28 02:33:40;;;;;;;4.10;0.30;;;;;;;19.25;74.02;101655.06;7386392;19;20052;-64
2022/08/28 02:36:09;;;;;;;3.03;0.25;;;;;;;19.20;74.08;101652.94;7384363;19;20019;-65
2022/08/28 02:38:37;;;;;;;2.65;0.30;;;;;;;19.16;74.59;101654.34;7387631;19;20014;-63
2022/08/28 02:41:05;;;;;;;2.20;0.30;;;;;;;19.13;74.60;101652.88;7387098;19;20042;-63
2022/08/28 02:43:33;;;;;;;2.65;0.30;;;;;;;19.09;74.49;101650.78;7386541;19;20018;-64
2022/08/28 02:46:00;;;;;;;2.63;0.20;;;;;;;19.05;74.46;101647.63;7387458;19;20027;-65
2022/08/28 02:48:32;;;;;;;3.80;0.40;;;;;;;19.06;74.63;101643.97;7384506;19;20037;-63
2022/08/28 02:51:04;;;;;;;2.58;0.40;;;;;;;19.03;74.91;101649.69;7382471;19;20014;-63
2022/08/28 02:53:34;;;;;;;3.70;0.40;;;;;;;18.98;75.19;101643.25;7386490;19;20391;-64
2022/08/28 02:56:05;;;;;;;2.80;0.35;;;;;;;18.91;75.08;101637.84;7384760;19;20019;-64
2022/08/28 02:58:34;;;;;;;2.88;0.30;;;;;;;18.86;75.59;101637.56;7384608;19;20490;-64
2022/08/28 03:01:05;;;;;;;1.17;0.20;;;;;;;18.83;75.58;101639.78;7384800;19;20022;-64
2022/08/28 03:03:33;;;;;;;1.50;0.77;;;;;;;18.77;76.13;101636.88;7384979;19;20018;-63
2022/08/28 03:06:03;;;;;;;2.22;0.30;;;;;;;18.72;76.19;101641.09;7382330;19;20363;-65
2022/08/28 03:08:31;;;;;;;4.70;0.50;;;;;;;18.70;76.53;101637.78;7386165;19;20015;-64
2022/08/28 03:10:59;;;;;;;2.05;0.30;;;;;;;18.71;76.80;101639.44;7381333;19;20022;-63
2022/08/28 03:13:26;;;;;;;4.03;0.30;;;;;;;18.73;76.71;101635.59;7384788;19;20021;-63
2022/08/28 03:15:54;;;;;;;3.45;0.35;;;;;;;18.75;76.20;101633.53;7384634;19;20014;-63
2022/08/28 03:18:25;;;;;;;3.05;0.30;;;;;;;18.76;76.28;101642.38;7384439;19;20014;-64
2022/08/28 03:20:52;;;;;;;3.63;0.40;;;;;;;18.76;76.04;101624.53;7374914;19;20024;-65
2022/08/28 03:23:26;;;;;;;2.17;0.25;;;;;;;18.79;76.02;101637.47;7386034;19;20007;-65
2022/08/28 03:25:58;;;;;;;4.55;0.63;;;;;;;18.74;75.82;101631.09;7385962;19;20443;-65
2022/08/28 03:28:28;;;;;;;3.10;0.25;;;;;;;18.71;76.43;101644.78;7383621;19;20118;-66
2022/08/28 03:30:56;;;;;;;4.13;0.30;;;;;;;18.68;75.91;101634.50;7386019;19;20018;-66
2022/08/28 03:33:25;;;;;;;1.65;0.30;;;;;;;18.66;76.47;101637.34;7386353;19;20014;-66
2022/08/28 03:35:52;;;;;;;2.63;0.32;;;;;;;18.64;76.39;101635.88;7382294;19;20487;-67
2022/08/28 03:38:20;;;;;;;4.75;0.40;;;;;;;18.61;76.55;101642.38;7379508;19;20018;-66
2022/08/28 03:40:47;;;;;;;4.43;0.40;;;;;;;18.58;76.82;101640.09;7381047;19;20584;-66
2022/08/28 03:43:20;;;;;;;3.58;0.50;;;;;;;18.56;76.93;101644.78;7384139;19;20353;-68
2022/08/28 03:45:56;;;;;;;4.57;0.40;;;;;;;18.53;77.24;101642.47;7385359;19;20394;-66
2022/08/28 03:48:26;;;;;;;1.70;0.30;;;;;;;18.53;77.18;101650.47;7381046;19;20014;-66
2022/08/28 03:50:53;;;;;;;3.53;0.30;;;;;;;18.53;77.22;101645.13;7381497;19;20033;-66
2022/08/28 03:53:22;;;;;;;3.03;0.32;;;;;;;18.53;76.88;101647.81;7382784;19;20375;-65
2022/08/28 03:55:50;;;;;;;2.80;0.40;;;;;;;18.50;76.78;101648.16;7385236;19;20017;-66
2022/08/28 03:58:18;;;;;;;4.40;0.30;;;;;;;18.48;77.06;101652.03;7385708;19;20710;-66
2022/08/28 04:00:45;;;;;;;3.17;0.40;;;;;;;18.45;77.20;101639.88;7382847;19;20108;-65
2022/08/28 04:03:12;;;;;;;1.85;0.40;;;;;;;18.45;77.14;101641.72;7383524;19;20015;-66
2022/08/28 04:05:41;;;;;;;3.08;0.40;;;;;;;18.40;77.46;101639.59;7377989;19;20025;-65
2022/08/28 04:08:12;;;;;;;3.00;0.30;;;;;;;18.36;77.49;101639.16;7383600;19;20015;-65
2022/08/28 04:10:42;;;;;;;1.77;0.30;;;;;;;18.36;77.17;101641.81;7380057;19;20018;-66
2022/08/28 04:13:12;;;;;;;2.75;0.40;;;;;;;18.34;77.82;101641.16;7383703;19;20503;-66
2022/08/28 04:15:40;;;;;;;1.55;0.38;;;;;;;18.29;77.42;101640.88;7382592;19;20011;-65
2022/08/28 04:18:08;;;;;;;3.75;0.30;;;;;;;18.29;77.66;101637.38;7383021;19;20115;-65
2022/08/28 04:20:37;;;;;;;2.30;0.30;;;;;;;18.28;77.82;101654.41;7380823;19;20016;-65
2022/08/28 04:23:06;;;;;;;3.08;0.30;;;;;;;18.25;77.72;101655.59;7380754;19;20023;-66
2022/08/28 04:25:33;;;;;;;4.28;0.93;;;;;;;18.27;77.67;101660.75;7383308;19;20010;-66
2022/08/28 04:28:00;;;;;;;3.03;1.48;;;;;;;18.28;78.10;101662.41;7382388;19;20041;-66
2022/08/28 04:30:27;;;;;;;2.67;0.30;;;;;;;18.27;78.38;101656.25;7382780;19;20006;-66
2022/08/28 04:32:54;;;;;;;3.90;0.38;;;;;;;18.26;78.18;101651.91;7381082;19;20006;-66
2022/08/28 04:35:21;;;;;;;3.20;0.30;;;;;;;18.28;77.83;101657.06;7379922;19;20041;-66
2022/08/28 04:37:48;;;;;;;2.38;0.30;;;;;;;18.26;77.65;101657.25;7381228;19;20045;-66
2022/08/28 04:40:15;;;;;;;2.20;0.30;;;;;;;18.26;77.54;101657.25;7380293;19;20355;-67
2022/08/28 04:42:43;;;;;;;4.55;0.30;;;;;;;18.23;77.58;101660.28;7382195;19;20562;-65
2022/08/28 04:45:11;;;;;;;2.30;0.40;;;;;;;18.22;78.34;101657.81;7382178;19;20026;-65
2022/08/28 04:47:38;;;;;;;1.67;0.30;;;;;;;18.21;77.66;101661.47;7380624;19;20011;-65
2022/08/28 04:50:06;;;;;;;4.28;0.20;;;;;;;18.19;77.73;101666.13;7377332;19;20386;-65
2022/08/28 04:52:33;;;;;;;2.42;0.40;;;;;;;18.14;77.64;101665.84;7381071;19;20013;-65
2022/08/28 04:55:01;;;;;;;3.22;0.52;;;;;;;18.08;78.20;101664.75;7380293;19;20015;-64
2022/08/28 04:57:28;;;;;;;1.80;0.50;;;;;;;18.03;78.22;101659.13;7381853;19;20010;-66
2022/08/28 05:00:01;;;;;;;4.15;0.30;;;;;;;17.98;78.57;101666.84;7381296;19;20002;-65
2022/08/28 05:02:28;;;;;;;3.22;0.55;;;;;;;17.99;79.74;101668.50;7381984;19;20811;-66
2022/08/28 05:04:56;;;;;;;4.25;0.30;;;;;;;18.00;79.13;101677.31;7378415;19;20019;-66
2022/08/28 05:07:25;;;;;;;2.65;0.40;;;;;;;18.00;78.59;101667.50;7381444;19;20010;-65
2022/08/28 05:09:53;;;;;;;5.07;0.30;;;;;;;18.03;78.65;101661.00;7381109;19;20539;-64
2022/08/28 05:12:21;;;;;;;3.17;0.50;;;;;;;18.04;78.60;101663.47;7379293;19;20033;-64
2022/08/28 05:14:48;;;;;;;1.67;0.30;;;;;;;18.06;78.71;101668.63;7383299;19;20019;-65
2022/08/28 05:17:15;;;;;;;6.72;0.70;;;;;;;18.06;78.64;101672.09;7388805;19;20010;-66
2022/08/28 05:19:43;;;;;;;3.00;0.60;;;;;;;18.07;78.33;101672.94;7384433;19;20367;-65
2022/08/28 05:22:11;;;;;;;4.00;0.40;;;;;;;18.06;78.10;101672.09;7389330;19;20080;-65
2022/08/28 05:24:39;;;;;;;4.00;0.47;;;;;;;18.05;77.70;101680.25;7386184;19;20074;-65
2022/08/28 05:27:07;;;;;;;1.10;0.30;;;;;;;18.04;78.02;101686.59;7389154;19;20041;-65
2022/08/28 05:29:34;;;;;;;0.65;0.20;;;;;;;17.94;78.25;101682.34;7387013;19;20479;-64
2022/08/28 05:32:02;;;;;;;4.50;0.40;;;;;;;17.89;78.93;101683.91;7387434;19;20079;-64
2022/08/28 05:34:30;;;;;;;3.42;0.40;;;;;;;17.85;79.46;101687.94;7383133;19;20404;-65
2022/08/28 05:36:57;;;;;;;3.88;0.30;;;;;;;17.84;79.04;101688.94;7387941;19;20003;-64
2022/08/28 05:39:25;;;;;;;3.03;0.40;;;;;;;17.83;79.06;101696.09;7384257;19;20042;-64
2022/08/28 05:41:52;;;;;;;1.70;0.30;;;;;;;17.79;79.38;101700.13;7389037;19;20754;-64
2022/08/28 05:44:19;;;;;;;3.20;0.30;;;;;;;17.79;79.57;101701.97;7384556;19;20018;-64
2022/08/28 05:46:47;;;;;;;4.15;0.30;;;;;;;17.81;79.31;101694.63;7388519;19;20379;-65
2022/08/28 05:49:16;;;;;;;2.75;0.43;;;;;;;17.80;79.10;101687.66;7384611;19;20010;-67
2022/08/28 05:51:50;;;;;;;5.65;0.75;;;;;;;17.80;79.71;101696.47;7386534;19;20048;-66
2022/08/28 05:54:17;;;;;;;3.92;0.50;;;;;;;17.80;80.24;101695.63;7383963;19;20011;-65
2022/08/28 05:56:45;;;;;;;6.07;0.73;;;;;;;17.85;79.00;101695.91;7386188;19;20451;-66
2022/08/28 05:59:14;;;;;;;2.03;0.40;;;;;;;17.86;79.06;101698.41;7385461;19;20013;-65
2022/08/28 06:01:45;;;;;;;2.47;0.30;;;;;;;17.87;78.79;101707.25;7385300;19;20016;-65
2022/08/28 06:04:16;;;;;;;5.30;0.40;;;;;;;17.91;78.86;101706.69;7382793;19;20538;-63
2022/08/28 06:06:44;;;;;;;1.73;0.30;;;;;;;17.87;78.58;101715.22;7386681;19;20494;-63
2022/08/28 06:09:24;;;;;;;4.20;0.30;;;;;;;17.86;78.93;101714.41;7383535;19;20018;-63
2022/08/28 06:11:58;;;;;;;2.88;0.30;;;;;;;17.82;79.10;101717.59;7385606;19;20014;-63
2022/08/28 06:14:26;;;;;;;3.63;0.35;;;;;;;17.83;79.35;101719.22;7385627;19;20098;-63
2022/08/28 06:16:55;;;;;;;1.38;0.30;;;;;;;17.82;79.07;101715.75;7385449;19;20037;-66
2022/08/28 06:19:28;;;;;;;6.10;0.50;;;;;;;17.85;79.24;101722.56;7383270;19;20057;-65
2022/08/28 06:21:57;;;;;;;3.50;0.43;;;;;;;17.86;78.98;101721.56;7386368;19;20376;-67
2022/08/28 06:24:26;;;;;;;3.22;0.30;;;;;;;17.87;79.25;101726.72;7383966;19;20078;-66
2022/08/28 06:26:54;;;;;;;2.00;0.55;;;;;;;17.92;79.37;101721.69;7385448;19;20291;-66
2022/08/28 06:29:43;;;;;;;2.55;0.30;;;;;;;17.94;78.81;101726.81;7384470;19;20474;-65
2022/08/28 06:32:10;;;;;;;2.95;0.40;;;;;;;17.96;78.51;101724.81;7386266;19;20014;-65
2022/08/28 06:34:37;;;;;;;4.80;0.47;;;;;;;18.00;78.43;101727.91;7380571;19;20446;-65
2022/08/28 06:37:04;;;;;;;3.42;0.50;;;;;;;18.03;77.82;101733.72;7387394;19;20078;-65
2022/08/28 06:39:31;;;;;;;4.05;0.40;;;;;;;18.05;78.16;101733.53;7383335;19;20010;-66
2022/08/28 06:41:58;;;;;;;4.10;0.30;;;;;;;18.06;78.17;101727.22;7386511;19;20033;-66
2022/08/28 06:44:26;;;;;;;2.17;0.30;;;;;;;18.08;78.17;101736.66;7386357;19;20015;-66
2022/08/28 06:46:54;;;;;;;1.92;0.30;;;;;;;18.13;78.13;101746.81;7385860;19;20098;-65
2022/08/28 06:49:26;;;;;;;4.35;0.40;;;;;;;18.15;77.91;101737.63;7382758;19;20018;-66
2022/08/28 06:51:55;;;;;;;;;;;;;;;18.19;77.72;101741.56;7385594;19;20101;-66
2022/08/28 06:54:21;;;;;;;2.60;0.32;;;;;;;18.20;77.66;101740.56;7381328;19;20267;-65
2022/08/28 06:56:50;;;;;;;2.33;0.38;;;;;;;18.27;77.12;101740.69;7387292;19;20014;-66
2022/08/28 06:59:26;;;;;;;1.77;0.35;;;;;;;18.28;77.60;101742.34;7383536;19;20040;-63
2022/08/28 07:01:54;;;;;;;2.83;0.85;;;;;;;18.34;76.95;101737.09;7386632;19;20019;-63
2022/08/28 07:04:24;;;;;;;4.50;0.40;;;;;;;18.41;76.96;101750.53;7379518;19;20342;-63
2022/08/28 07:06:50;;;;;;;2.83;0.40;;;;;;;18.46;76.31;101748.16;7385038;19;20021;-63
2022/08/28 07:09:26;;;;;;;4.30;0.35;;;;;;;18.49;76.22;101750.44;7385550;19;20311;-65
2022/08/28 07:11:53;;;;;;;2.58;0.40;;;;;;;18.48;76.26;101750.66;7385731;19;20014;-65
2022/08/28 07:14:20;;;;;;;3.40;0.52;;;;;;;18.45;76.46;101751.00;7384789;19;20526;-65
2022/08/28 07:16:47;;;;;;;3.33;0.43;;;;;;;18.45;76.64;101749.16;7385798;19;20015;-63
2022/08/28 07:19:14;;;;;;;3.05;0.32;;;;;;;18.49;76.03;101744.31;7382103;19;20025;-64
2022/08/28 07:21:44;;;;;;;5.32;0.30;;;;;;;18.47;76.43;101746.31;7384825;19;20098;-65
2022/08/28 07:24:13;;;;;;;4.93;0.70;;;;;;;18.46;76.64;101752.66;7384489;19;20010;-64
2022/08/28 07:26:42;;;;;;;3.35;0.40;;;;;;;18.48;76.54;101756.81;7384511;19;20014;-65
2022/08/28 07:29:09;;;;;;;3.67;0.32;;;;;;;18.51;76.66;101760.94;7384311;19;20018;-65
2022/08/28 07:31:44;;;;;;;2.97;0.40;;;;;;;18.57;76.15;101749.59;7386603;19;20698;-65
2022/08/28 07:34:12;;;;;;;5.20;0.57;;;;;;;18.63;75.93;101762.19;7382206;19;20800;-64
2022/08/28 07:36:40;;;;;;;4.60;0.38;;;;;;;18.66;75.94;101754.66;7383740;19;20375;-63
2022/08/28 07:39:09;;;;;;;4.22;0.40;;;;;;;18.68;75.77;101759.81;7382922;19;20014;-63
2022/08/28 07:41:38;;;;;;;3.78;0.47;;;;;;;18.66;76.14;101761.81;7385429;19;20074;-63
2022/08/28 07:46:58;;;;;;;5.53;0.40;;;;;;;18.71;75.94;101762.09;7385084;19;20021;-63
2022/08/28 07:49:26;;;;;;;4.15;0.50;;;;;;;18.72;75.63;101769.09;7382777;19;20027;-62
2022/08/28 07:51:53;;;;;;;3.67;0.45;;;;;;;18.74;76.31;101764.41;7385653;19;20022;-63
2022/08/28 07:54:21;;;;;;;2.75;0.40;;;;;;;18.79;75.78;101764.69;7384419;19;20497;-63
2022/08/28 07:56:49;;;;;;;2.85;0.30;;;;;;;18.85;75.82;101763.94;7386267;19;20521;-62
2022/08/28 07:59:17;;;;;;;3.38;0.47;;;;;;;19.02;75.26;101760.09;7384226;19;20074;-64
2022/08/28 08:01:52;;;;;;;2.70;0.55;;;;;;;19.11;74.92;101761.63;7383589;19;20014;-64
2022/08/28 08:04:20;;;;;;;2.65;0.30;;;;;;;19.17;74.89;101762.72;7382566;19;20006;-64
2022/08/28 08:06:48;;;;;;;9.93;0.47;;;;;;;19.28;74.69;101756.09;7384060;19;20037;-65
2022/08/28 08:09:26;;;;;;;5.75;0.50;;;;;;;19.29;74.37;101761.25;7382866;19;20472;-65
2022/08/28 08:11:55;;;;;;;5.55;0.40;;;;;;;19.33;74.08;101751.03;7384449;19;20487;-65
2022/08/28 08:14:23;;;;;;;5.45;0.52;;;;;;;19.35;74.50;101754.34;7382910;19;20014;-65
2022/08/28 08:16:51;;;;;;;3.00;0.40;;;;;;;19.37;74.56;101747.78;7384163;19;20028;-65
2022/08/28 08:19:25;;;;;;;2.50;0.50;;;;;;;19.47;73.18;101750.19;7379070;19;20147;-64
2022/08/28 08:21:52;;;;;;;3.13;0.50;;;;;;;19.55;73.07;101761.59;7384467;19;20590;-65
2022/08/28 08:24:24;;;;;;;5.57;0.80;;;;;;;19.58;72.85;101763.06;7380228;19;20045;-65
2022/08/28 08:26:55;;;;;;;3.30;0.40;;;;;;;19.66;73.37;101764.78;7384764;19;20010;-66
2022/08/28 08:29:34;;;;;;;4.47;0.50;;;;;;;19.69;72.88;101767.91;7382383;19;20087;-63
2022/08/28 08:32:06;;;;;;;10.05;1.95;;;;;;;19.73;72.71;101763.84;7383741;19;20021;-63
2022/08/28 08:34:37;;;;;;;3.97;0.30;;;;;;;19.80;72.11;101763.91;7380116;19;20014;-65
2022/08/28 08:37:05;;;;;;;8.68;0.43;;;;;;;19.81;72.50;101773.59;7383371;19;20018;-66
2022/08/28 08:39:34;;;;;;;3.58;0.68;;;;;;;19.84;72.63;101755.31;7379846;19;20501;-66
2022/08/28 08:42:03;;;;;;;5.03;0.40;;;;;;;19.93;72.66;101762.19;7381350;19;20442;-66
2022/08/28 08:44:42;;;;;;;3.55;0.50;;;;;;;20.01;70.94;101770.06;7382388;19;20078;-67
2022/08/28 08:47:36;;;;;;;4.40;0.30;;;;;;;20.08;70.36;101759.44;7383591;19;20022;-66
2022/08/28 08:50:10;;;;;;;3.72;0.30;;;;;;;20.07;70.92;101758.59;7381866;19;20351;-66
2022/08/28 08:53:05;;;;;;;4.57;0.73;;;;;;;20.07;70.54;101766.63;7388936;19;20018;-65
2022/08/28 08:55:34;;;;;;;2.67;0.40;;;;;;;20.17;69.37;101757.44;7388545;19;20021;-66
2022/08/28 08:58:01;;;;;;;5.50;0.30;;;;;;;20.20;68.95;101762.44;7390244;19;20010;-67
2022/08/28 09:00:33;;;;;;;4.50;0.70;;;;;;;20.22;70.73;101773.75;7389569;19;20018;-63
2022/08/28 09:03:06;;;;;;;2.25;0.30;;;;;;;20.23;69.62;101778.91;7334228;19;20017;-62
2022/08/28 09:05:47;;;;;;;1.77;0.30;;;;;;;20.31;68.82;101773.47;7376633;19;20018;-63
2022/08/28 09:08:41;;;;;;;1.90;0.20;;;;;;;20.37;68.80;101775.34;7386693;19;20634;-63
2022/08/28 09:11:44;;;;;;;4.95;0.40;;;;;;;20.42;68.23;101778.25;7385318;19;20686;-63
2022/08/28 09:14:33;;;;;;;7.03;0.40;;;;;;;20.45;68.64;101782.41;7385447;19;20039;-64
2022/08/28 09:17:01;;;;;;;3.78;0.25;;;;;;;20.47;68.81;101780.34;7387820;19;20015;-63
2022/08/28 09:19:28;;;;;;;5.05;0.30;;;;;;;20.49;69.68;101779.16;7383449;19;20446;-64
2022/08/28 09:21:55;;;;;;;5.57;0.30;;;;;;;20.58;68.35;101779.00;7386240;19;20392;-65
2022/08/28 09:24:31;;;;;;;5.00;0.38;;;;;;;20.67;67.17;101775.16;7385917;19;20090;-62
2022/08/28 09:27:05;;;;;;;2.65;0.20;;;;;;;20.74;66.73;101784.88;7387044;19;20010;-63
2022/08/28 09:29:45;;;;;;;6.38;0.30;;;;;;;20.76;67.49;101774.81;7384342;19;20039;-64
2022/08/28 09:32:24;;;;;;;3.40;0.30;;;;;;;20.84;66.73;101774.66;7385848;19;20018;-63
2022/08/28 09:35:23;;;;;;;2.17;0.30;;;;;;;20.86;66.70;101777.13;7383754;19;20483;-64
2022/08/28 09:37:51;;;;;;;6.13;1.10;;;;;;;20.87;66.23;101768.09;7385957;19;20022;-64
2022/08/28 09:43:27;;;;;;;6.03;0.30;;;;;;;20.88;66.25;101767.03;7385949;19;20014;-63
2022/08/28 09:46:20;;;;;;;5.47;0.50;;;;;;;20.95;65.78;101759.91;7386499;19;20535;-65
2022/08/28 09:48:51;;;;;;;3.38;0.40;;;;;;;20.99;65.26;101761.16;7386698;19;20014;-66
2022/08/28 09:51:21;;;;;;;4.32;0.40;;;;;;;21.03;65.29;101764.28;7384828;19;20007;-65
2022/08/28 09:53:51;;;;;;;3.90;0.52;;;;;;;21.08;66.04;101761.81;7381030;19;20019;-66
2022/08/28 09:56:26;;;;;;;3.55;0.30;;;;;;;21.11;65.78;101756.88;7387278;19;20491;-66
2022/08/28 09:58:56;;;;;;;4.03;0.40;;;;;;;21.16;64.47;101767.84;7386106;19;20021;-66
2022/08/28 10:01:45;;;;;;;4.72;0.30;;;;;;;21.26;64.96;101757.59;7384784;19;20016;-65
2022/08/28 10:04:27;;;;;;;3.42;0.30;;;;;;;21.37;63.49;101758.88;7383199;19;20014;-66
2022/08/28 10:07:01;;;;;;;3.17;0.40;;;;;;;21.45;63.48;101765.91;7388401;19;20336;-66
2022/08/28 10:09:31;;;;;;;3.10;0.43;;;;;;;21.50;62.95;101761.59;7385391;19;20347;-66
2022/08/28 10:12:13;;;;;;;4.93;0.35;;;;;;;21.53;62.35;101763.88;7383790;19;20022;-67
2022/08/28 10:14:58;;;;;;;4.50;0.30;;;;;;;21.55;61.06;101767.16;7383419;19;20037;-66
2022/08/28 10:17:50;;;;;;;2.00;0.20;;;;;;;21.63;59.37;101775.03;7386109;19;20013;-65
2022/08/28 10:20:23;;;;;;;3.17;0.20;;;;;;;21.56;60.14;101771.50;7382204;19;20078;-66
2022/08/28 10:22:59;;;;;;;4.28;0.40;;;;;;;21.52;60.39;101772.94;7385017;19;20010;-66
2022/08/28 10:25:45;;;;;;;2.70;0.35;;;;;;;21.47;60.62;101766.53;7385420;19;20412;-67
2022/08/28 10:28:38;;;;;;;3.08;0.32;;;;;;;21.44;61.12;101765.06;7384306;19;20078;-68
2022/08/28 10:31:30;;;;;;;5.53;0.30;;;;;;;21.48;61.50;101758.31;7384578;19;20400;-67
2022/08/28 10:34:15;;;;;;;4.05;0.32;;;;;;;21.59;60.95;101756.88;7381890;19;20014;-66
2022/08/28 10:36:49;;;;;;;4.22;0.30;;;;;;;21.68;61.09;101742.28;7384851;19;21434;-66
2022/08/28 10:39:46;;;;;;;2.40;0.30;;;;;;;21.70;60.87;101758.97;7383150;19;20090;-67
2022/08/28 10:42:21;;;;;;;1.75;0.20;;;;;;;21.67;61.01;101752.16;7385690;19;20014;-65
2022/08/28 10:45:05;;;;;;;5.05;0.32;;;;;;;21.71;61.70;101752.56;7384644;19;20023;-64
2022/08/28 10:47:36;;;;;;;8.88;0.38;;;;;;;21.78;60.09;101748.06;7382656;19;20077;-65
2022/08/28 10:50:16;;;;;;;1.48;0.20;;;;;;;21.80;59.41;101754.03;7381598;19;20060;-65
2022/08/28 10:52:50;;;;;;;4.43;0.40;;;;;;;21.81;59.23;101752.19;7384045;19;20027;-65
2022/08/28 10:55:34;;;;;;;2.47;0.30;;;;;;;21.81;58.82;101752.19;7383419;19;20010;-65
2022/08/28 10:58:10;;;;;;;3.08;0.30;;;;;;;21.83;58.02;101756.31;7384702;19;20060;-65
2022/08/28 11:00:59;;;;;;;1.50;0.30;;;;;;;21.84;58.57;101760.63;7384123;19;20082;-65
2022/08/28 11:03:30;;;;;;;1.70;0.20;;;;;;;21.87;57.82;101757.56;7383241;19;20022;-66
2022/08/28 11:06:10;;;;;;;1.48;0.30;;;;;;;21.87;57.56;101746.00;7381428;19;20042;-65
2022/08/28 11:08:38;;;;;;;2.45;0.30;;;;;;;21.87;57.74;101746.84;7384170;19;20018;-66
2022/08/28 11:11:12;;;;;;;1.15;0.28;;;;;;;21.90;57.89;101750.94;7384782;19;20007;-66
2022/08/28 11:13:51;;;;;;;4.90;0.40;;;;;;;21.89;58.23;101755.47;7381700;19;20327;-65
2022/08/28 11:16:34;;;;;;;3.83;0.82;;;;;;;21.91;58.39;101749.94;7384035;19;20534;-64
2022/08/28 11:19:10;;;;;;;3.75;0.50;;;;;;;21.92;58.76;101746.22;7380340;19;20029;-67
2022/08/28 11:21:52;;;;;;;4.25;0.30;;;;;;;21.89;59.25;101746.66;7384421;19;20011;-65
2022/08/28 11:24:37;;;;;;;1.65;0.30;;;;;;;21.93;57.38;101745.19;7383171;19;20017;-64
2022/08/28 11:27:33;;;;;;;2.00;0.40;;;;;;;21.94;57.36;101745.00;7381812;19;20051;-67
2022/08/28 11:30:14;;;;;;;1.65;0.30;;;;;;;22.03;55.41;101740.28;7383110;19;20011;-65
2022/08/28 11:33:27;;;;;;;2.17;0.30;;;;;;;22.04;55.25;101736.59;7383944;19;20010;-65
2022/08/28 11:35:54;;;;;;;2.25;0.30;;;;;;;22.04;56.10;101732.06;7380789;19;20013;-65
2022/08/28 11:38:44;;;;;;;2.10;0.30;;;;;;;22.03;56.29;101738.44;7382722;19;20011;-65
2022/08/28 11:41:14;;;;;;;4.55;0.40;;;;;;;22.06;55.09;101737.19;7380211;19;20021;-65
2022/08/28 11:43:49;;;;;;;2.72;0.30;;;;;;;22.07;55.65;101731.63;7384847;19;20403;-65
2022/08/28 11:46:32;;;;;;;5.65;0.63;;;;;;;22.07;55.96;101736.16;7382542;19;20002;-66
2022/08/28 11:49:02;;;;;;;4.60;0.40;;;;;;;22.08;55.74;101735.97;7381246;19;20038;-67
2022/08/28 11:51:44;;;;;;;3.90;0.20;;;;;;;22.16;55.37;101734.91;7336062;19;20083;-64
2022/08/28 11:54:22;;;;;;;2.40;0.35;;;;;;;22.15;55.90;101738.63;7369525;19;20332;-66